sensor_id;sensor_type;location;lat;lon;timestamp;P1;durP1;ratioP1;P2;durP2;ratioP2
67231;SDS011;54145;49.798;-97.162;2022-09-24T00:00:09;0.20;;;0.20;;
67231;SDS011;54145;49.798;-97.162;2022-09-24T00:02:11;0.65;;;0.43;;
67231;SDS011;54145;49.798;-97.162;2022-09-24T00:04:12;0.35;;;0.35;;
67231;SDS011;54145;49.798;-97.162;2022-09-24T00:06:13;0.20;;;0.20;;
67231;SDS011;54145;49.798;-97.162;2022-09-24T00:08:15;0.30;;;0.30;;
67231;SDS011;54145;49.798;-97.162;2022-09-24T00:10:16;0.20;;;0.20;;
67231;SDS011;54145;49.798;-97.162;2022-09-24T00:12:16;0.20;;;0.20;;
67231;SDS011;54145;49.798;-97.162;2022-09-24T00:14:18;0.65;;;0.32;;
67231;SDS011;54145;49.798;-97.162;2022-09-24T00:16:19;2.27;;;0.20;;
67231;SDS011;54145;49.798;-97.162;2022-09-24T00:18:21;0.40;;;0.28;;
67231;SDS011;54145;49.798;-97.162;2022-09-24T00:20:22;0.30;;;0.30;;
67231;SDS011;54145;49.798;-97.162;2022-09-24T00:22:22;0.47;;;0.30;;
67231;SDS011;54145;49.798;-97.162;2022-09-24T00:24:23;0.30;;;0.30;;
67231;SDS011;54145;49.798;-97.162;2022-09-24T00:26:43;0.30;;;0.30;;
67231;SDS011;54145;49.798;-97.162;2022-09-24T00:28:50;0.30;;;0.30;;
67231;SDS011;54145;49.798;-97.162;2022-09-24T00:30:51;0.30;;;0.30;;
67231;SDS011;54145;49.798;-97.162;2022-09-24T00:32:52;1.80;;;0.70;;
67231;SDS011;54145;49.798;-97.162;2022-09-24T00:34:53;0.30;;;0.30;;
67231;SDS011;54145;49.798;-97.162;2022-09-24T00:36:54;0.30;;;0.30;;
67231;SDS011;54145;49.798;-97.162;2022-09-24T00:38:55;0.23;;;0.23;;
67231;SDS011;54145;49.798;-97.162;2022-09-24T00:40:56;0.30;;;0.30;;
67231;SDS011;54145;49.798;-97.162;2022-09-24T00:42:59;0.22;;;0.20;;
67231;SDS011;54145;49.798;-97.162;2022-09-24T00:45:00;0.20;;;0.20;;
67231;SDS011;54145;49.798;-97.162;2022-09-24T00:47:04;0.22;;;0.22;;
67231;SDS011;54145;49.798;-97.162;2022-09-24T00:49:15;0.30;;;0.30;;
67231;SDS011;54145;49.798;-97.162;2022-09-24T00:51:18;0.68;;;0.40;;
67231;SDS011;54145;49.798;-97.162;2022-09-24T00:53:20;0.40;;;0.38;;
67231;SDS011;54145;49.798;-97.162;2022-09-24T00:55:22;0.30;;;0.30;;
67231;SDS011;54145;49.798;-97.162;2022-09-24T00:57:24;0.45;;;0.40;;
67231;SDS011;54145;49.798;-97.162;2022-09-24T00:59:25;0.20;;;0.20;;
67231;SDS011;54145;49.798;-97.162;2022-09-24T01:01:27;0.20;;;0.20;;
67231;SDS011;54145;49.798;-97.162;2022-09-24T01:05:29;0.22;;;0.22;;
67231;SDS011;54145;49.798;-97.162;2022-09-24T01:07:30;0.85;;;0.40;;
67231;SDS011;54145;49.798;-97.162;2022-09-24T01:09:31;0.27;;;0.20;;
67231;SDS011;54145;49.798;-97.162;2022-09-24T01:11:39;0.27;;;0.20;;
67231;SDS011;54145;49.798;-97.162;2022-09-24T01:13:47;0.30;;;0.30;;
67231;SDS011;54145;49.798;-97.162;2022-09-24T01:15:58;0.20;;;0.20;;
67231;SDS011;54145;49.798;-97.162;2022-09-24T01:18:08;0.45;;;0.28;;
67231;SDS011;54145;49.798;-97.162;2022-09-24T01:27:00;0.30;;;0.30;;
67231;SDS011;54145;49.798;-97.162;2022-09-24T01:31:28;2.50;;;0.50;;
67231;SDS011;54145;49.798;-97.162;2022-09-24T01:33:29;1.08;;;0.30;;
67231;SDS011;54145;49.798;-97.162;2022-09-24T01:35:41;2.40;;;0.20;;
67231;SDS011;54145;49.798;-97.162;2022-09-24T01:37:44;0.20;;;0.20;;
67231;SDS011;54145;49.798;-97.162;2022-09-24T01:39:46;0.30;;;0.30;;
67231;SDS011;54145;49.798;-97.162;2022-09-24T01:43:48;0.55;;;0.20;;
67231;SDS011;54145;49.798;-97.162;2022-09-24T01:45:49;0.20;;;0.20;;
67231;SDS011;54145;49.798;-97.162;2022-09-24T01:47:51;0.20;;;0.20;;
67231;SDS011;54145;49.798;-97.162;2022-09-24T01:49:52;0.10;;;0.10;;
67231;SDS011;54145;49.798;-97.162;2022-09-24T01:51:53;0.27;;;0.27;;
67231;SDS011;54145;49.798;-97.162;2022-09-24T01:53:59;0.30;;;0.30;;
67231;SDS011;54145;49.798;-97.162;2022-09-24T01:56:46;0.30;;;0.30;;
67231;SDS011;54145;49.798;-97.162;2022-09-24T01:58:28;0.22;;;0.22;;
67231;SDS011;54145;49.798;-97.162;2022-09-24T02:00:31;0.20;;;0.20;;
67231;SDS011;54145;49.798;-97.162;2022-09-24T02:04:50;0.10;;;0.10;;
67231;SDS011;54145;49.798;-97.162;2022-09-24T02:07:01;0.20;;;0.20;;
67231;SDS011;54145;49.798;-97.162;2022-09-24T02:09:03;0.32;;;0.20;;
67231;SDS011;54145;49.798;-97.162;2022-09-24T02:11:09;0.43;;;0.43;;
67231;SDS011;54145;49.798;-97.162;2022-09-24T02:13:10;0.28;;;0.15;;
67231;SDS011;54145;49.798;-97.162;2022-09-24T02:15:14;0.20;;;0.20;;
67231;SDS011;54145;49.798;-97.162;2022-09-24T02:17:16;0.77;;;0.32;;
67231;SDS011;54145;49.798;-97.162;2022-09-24T02:19:18;0.22;;;0.22;;
67231;SDS011;54145;49.798;-97.162;2022-09-24T02:21:22;0.20;;;0.20;;
67231;SDS011;54145;49.798;-97.162;2022-09-24T02:23:23;0.35;;;0.35;;
67231;SDS011;54145;49.798;-97.162;2022-09-24T02:25:29;0.20;;;0.20;;
67231;SDS011;54145;49.798;-97.162;2022-09-24T02:27:31;0.28;;;0.17;;
67231;SDS011;54145;49.798;-97.162;2022-09-24T02:29:32;0.20;;;0.20;;
67231;SDS011;54145;49.798;-97.162;2022-09-24T02:31:37;0.50;;;0.20;;
67231;SDS011;54145;49.798;-97.162;2022-09-24T02:33:40;0.35;;;0.30;;
67231;SDS011;54145;49.798;-97.162;2022-09-24T02:35:59;1.17;;;0.30;;
67231;SDS011;54145;49.798;-97.162;2022-09-24T02:38:00;0.17;;;0.17;;
67231;SDS011;54145;49.798;-97.162;2022-09-24T02:40:04;0.20;;;0.20;;
67231;SDS011;54145;49.798;-97.162;2022-09-24T02:42:05;0.90;;;0.20;;
67231;SDS011;54145;49.798;-97.162;2022-09-24T02:44:07;0.20;;;0.20;;
67231;SDS011;54145;49.798;-97.162;2022-09-24T02:46:08;4.60;;;0.30;;
67231;SDS011;54145;49.798;-97.162;2022-09-24T02:48:09;0.20;;;0.20;;
67231;SDS011;54145;49.798;-97.162;2022-09-24T02:50:10;0.30;;;0.30;;
67231;SDS011;54145;49.798;-97.162;2022-09-24T02:52:11;0.17;;;0.10;;
67231;SDS011;54145;49.798;-97.162;2022-09-24T02:54:12;0.20;;;0.20;;
67231;SDS011;54145;49.798;-97.162;2022-09-24T02:56:13;0.10;;;0.10;;
67231;SDS011;54145;49.798;-97.162;2022-09-24T02:58:14;0.20;;;0.20;;
67231;SDS011;54145;49.798;-97.162;2022-09-24T03:00:15;0.97;;;0.20;;
67231;SDS011;54145;49.798;-97.162;2022-09-24T03:04:17;0.10;;;0.10;;
67231;SDS011;54145;49.798;-97.162;2022-09-24T03:06:18;0.20;;;0.20;;
67231;SDS011;54145;49.798;-97.162;2022-09-24T03:08:19;0.27;;;0.20;;
67231;SDS011;54145;49.798;-97.162;2022-09-24T03:10:20;0.20;;;0.20;;
67231;SDS011;54145;49.798;-97.162;2022-09-24T03:12:21;0.10;;;0.10;;
67231;SDS011;54145;49.798;-97.162;2022-09-24T03:14:22;0.30;;;0.30;;
67231;SDS011;54145;49.798;-97.162;2022-09-24T03:18:24;0.30;;;0.20;;
67231;SDS011;54145;49.798;-97.162;2022-09-24T03:20:25;0.20;;;0.20;;
67231;SDS011;54145;49.798;-97.162;2022-09-24T03:22:26;0.20;;;0.20;;
67231;SDS011;54145;49.798;-97.162;2022-09-24T03:24:27;0.20;;;0.20;;
67231;SDS011;54145;49.798;-97.162;2022-09-24T03:26:28;0.13;;;0.13;;
67231;SDS011;54145;49.798;-97.162;2022-09-24T03:28:29;0.13;;;0.10;;
67231;SDS011;54145;49.798;-97.162;2022-09-24T03:30:30;0.30;;;0.20;;
67231;SDS011;54145;49.798;-97.162;2022-09-24T03:32:49;0.20;;;0.20;;
67231;SDS011;54145;49.798;-97.162;2022-09-24T03:34:50;0.22;;;0.22;;
67231;SDS011;54145;49.798;-97.162;2022-09-24T03:36:51;0.20;;;0.17;;
67231;SDS011;54145;49.798;-97.162;2022-09-24T03:38:52;0.10;;;0.10;;
67231;SDS011;54145;49.798;-97.162;2022-09-24T03:40:55;0.30;;;0.30;;
67231;SDS011;54145;49.798;-97.162;2022-09-24T03:42:56;0.22;;;0.22;;
67231;SDS011;54145;49.798;-97.162;2022-09-24T03:44:57;0.20;;;0.20;;
67231;SDS011;54145;49.798;-97.162;2022-09-24T03:46:59;0.10;;;0.10;;
67231;SDS011;54145;49.798;-97.162;2022-09-24T03:49:00;0.22;;;0.20;;
67231;SDS011;54145;49.798;-97.162;2022-09-24T03:51:08;0.20;;;0.20;;
67231;SDS011;54145;49.798;-97.162;2022-09-24T03:53:10;0.10;;;0.10;;
67231;SDS011;54145;49.798;-97.162;2022-09-24T03:55:11;0.10;;;0.10;;
67231;SDS011;54145;49.798;-97.162;2022-09-24T03:57:12;0.17;;;0.17;;
67231;SDS011;54145;49.798;-97.162;2022-09-24T03:59:14;0.32;;;0.20;;
67231;SDS011;54145;49.798;-97.162;2022-09-24T04:01:15;0.10;;;0.10;;
67231;SDS011;54145;49.798;-97.162;2022-09-24T04:03:20;0.20;;;0.20;;
67231;SDS011;54145;49.798;-97.162;2022-09-24T04:05:21;0.10;;;0.10;;
67231;SDS011;54145;49.798;-97.162;2022-09-24T04:07:22;0.30;;;0.30;;
67231;SDS011;54145;49.798;-97.162;2022-09-24T04:09:23;0.27;;;0.20;;
67231;SDS011;54145;49.798;-97.162;2022-09-24T04:11:24;0.20;;;0.20;;
67231;SDS011;54145;49.798;-97.162;2022-09-24T04:13:25;0.10;;;0.10;;
67231;SDS011;54145;49.798;-97.162;2022-09-24T04:15:26;0.17;;;0.17;;
67231;SDS011;54145;49.798;-97.162;2022-09-24T04:17:27;2.03;;;0.10;;
67231;SDS011;54145;49.798;-97.162;2022-09-24T04:19:30;0.20;;;0.20;;
67231;SDS011;54145;49.798;-97.162;2022-09-24T04:21:31;0.10;;;0.10;;
67231;SDS011;54145;49.798;-97.162;2022-09-24T04:23:32;0.30;;;0.20;;
67231;SDS011;54145;49.798;-97.162;2022-09-24T04:25:33;0.17;;;0.17;;
67231;SDS011;54145;49.798;-97.162;2022-09-24T04:27:34;0.20;;;0.17;;
67231;SDS011;54145;49.798;-97.162;2022-09-24T04:29:35;0.10;;;0.10;;
67231;SDS011;54145;49.798;-97.162;2022-09-24T04:31:36;0.10;;;0.10;;
67231;SDS011;54145;49.798;-97.162;2022-09-24T04:33:38;0.22;;;0.22;;
67231;SDS011;54145;49.798;-97.162;2022-09-24T04:35:40;0.20;;;0.20;;
67231;SDS011;54145;49.798;-97.162;2022-09-24T04:37:40;0.10;;;0.10;;
67231;SDS011;54145;49.798;-97.162;2022-09-24T04:39:42;1.45;;;0.20;;
67231;SDS011;54145;49.798;-97.162;2022-09-24T04:41:43;0.10;;;0.10;;
67231;SDS011;54145;49.798;-97.162;2022-09-24T04:43:46;0.10;;;0.10;;
67231;SDS011;54145;49.798;-97.162;2022-09-24T04:45:47;0.10;;;0.10;;
67231;SDS011;54145;49.798;-97.162;2022-09-24T04:47:48;0.20;;;0.20;;
67231;SDS011;54145;49.798;-97.162;2022-09-24T04:49:52;0.35;;;0.25;;
67231;SDS011;54145;49.798;-97.162;2022-09-24T04:51:53;0.20;;;0.20;;
67231;SDS011;54145;49.798;-97.162;2022-09-24T04:53:57;0.13;;;0.13;;
67231;SDS011;54145;49.798;-97.162;2022-09-24T04:55:59;0.10;;;0.10;;
67231;SDS011;54145;49.798;-97.162;2022-09-24T04:57:59;0.30;;;0.30;;
67231;SDS011;54145;49.798;-97.162;2022-09-24T05:00:02;0.20;;;0.20;;
67231;SDS011;54145;49.798;-97.162;2022-09-24T05:02:03;0.35;;;0.10;;
67231;SDS011;54145;49.798;-97.162;2022-09-24T05:04:07;0.20;;;0.20;;
67231;SDS011;54145;49.798;-97.162;2022-09-24T05:06:08;0.10;;;0.10;;
67231;SDS011;54145;49.798;-97.162;2022-09-24T05:08:09;0.10;;;0.10;;
67231;SDS011;54145;49.798;-97.162;2022-09-24T05:10:10;0.10;;;0.10;;
67231;SDS011;54145;49.798;-97.162;2022-09-24T05:12:10;0.10;;;0.10;;
67231;SDS011;54145;49.798;-97.162;2022-09-24T05:14:11;0.20;;;0.20;;
67231;SDS011;54145;49.798;-97.162;2022-09-24T05:16:12;0.20;;;0.20;;
67231;SDS011;54145;49.798;-97.162;2022-09-24T05:18:13;0.13;;;0.13;;
67231;SDS011;54145;49.798;-97.162;2022-09-24T05:20:14;0.10;;;0.10;;
67231;SDS011;54145;49.798;-97.162;2022-09-24T05:22:16;0.20;;;0.20;;
67231;SDS011;54145;49.798;-97.162;2022-09-24T05:24:17;0.10;;;0.10;;
67231;SDS011;54145;49.798;-97.162;2022-09-24T05:26:17;0.10;;;0.10;;
67231;SDS011;54145;49.798;-97.162;2022-09-24T05:28:36;0.20;;;0.20;;
67231;SDS011;54145;49.798;-97.162;2022-09-24T05:30:38;0.20;;;0.20;;
67231;SDS011;54145;49.798;-97.162;2022-09-24T05:32:39;0.32;;;0.30;;
67231;SDS011;54145;49.798;-97.162;2022-09-24T05:34:43;0.15;;;0.15;;
67231;SDS011;54145;49.798;-97.162;2022-09-24T05:36:44;0.13;;;0.13;;
67231;SDS011;54145;49.798;-97.162;2022-09-24T05:38:45;0.13;;;0.13;;
67231;SDS011;54145;49.798;-97.162;2022-09-24T05:40:46;2.27;;;0.30;;
67231;SDS011;54145;49.798;-97.162;2022-09-24T05:42:47;0.17;;;0.17;;
67231;SDS011;54145;49.798;-97.162;2022-09-24T05:44:47;0.20;;;0.20;;
67231;SDS011;54145;49.798;-97.162;2022-09-24T05:46:49;0.30;;;0.20;;
67231;SDS011;54145;49.798;-97.162;2022-09-24T05:48:50;0.93;;;0.28;;
67231;SDS011;54145;49.798;-97.162;2022-09-24T05:50:51;0.10;;;0.10;;
67231;SDS011;54145;49.798;-97.162;2022-09-24T05:52:54;0.13;;;0.13;;
67231;SDS011;54145;49.798;-97.162;2022-09-24T05:54:55;0.20;;;0.20;;
67231;SDS011;54145;49.798;-97.162;2022-09-24T05:56:56;0.60;;;0.20;;
67231;SDS011;54145;49.798;-97.162;2022-09-24T05:58:57;2.63;;;0.10;;
67231;SDS011;54145;49.798;-97.162;2022-09-24T06:01:00;0.10;;;0.10;;
67231;SDS011;54145;49.798;-97.162;2022-09-24T06:03:04;0.30;;;0.30;;
67231;SDS011;54145;49.798;-97.162;2022-09-24T06:05:07;0.10;;;0.10;;
67231;SDS011;54145;49.798;-97.162;2022-09-24T06:07:07;0.20;;;0.20;;
67231;SDS011;54145;49.798;-97.162;2022-09-24T06:09:10;0.20;;;0.20;;
67231;SDS011;54145;49.798;-97.162;2022-09-24T06:11:10;0.10;;;0.10;;
67231;SDS011;54145;49.798;-97.162;2022-09-24T06:13:13;0.10;;;0.10;;
67231;SDS011;54145;49.798;-97.162;2022-09-24T06:15:16;0.10;;;0.10;;
67231;SDS011;54145;49.798;-97.162;2022-09-24T06:19:19;0.10;;;0.05;;
67231;SDS011;54145;49.798;-97.162;2022-09-24T06:21:19;0.20;;;0.20;;
67231;SDS011;54145;49.798;-97.162;2022-09-24T06:23:20;0.20;;;0.20;;
67231;SDS011;54145;49.798;-97.162;2022-09-24T06:25:22;0.10;;;0.10;;
67231;SDS011;54145;49.798;-97.162;2022-09-24T06:27:24;0.10;;;0.10;;
67231;SDS011;54145;49.798;-97.162;2022-09-24T06:29:25;0.25;;;0.20;;
67231;SDS011;54145;49.798;-97.162;2022-09-24T06:31:25;0.20;;;0.20;;
67231;SDS011;54145;49.798;-97.162;2022-09-24T06:33:26;0.30;;;0.30;;
67231;SDS011;54145;49.798;-97.162;2022-09-24T06:35:27;0.20;;;0.20;;
67231;SDS011;54145;49.798;-97.162;2022-09-24T06:37:28;0.10;;;0.10;;
67231;SDS011;54145;49.798;-97.162;2022-09-24T06:39:29;0.10;;;0.10;;
67231;SDS011;54145;49.798;-97.162;2022-09-24T06:41:30;0.10;;;0.10;;
67231;SDS011;54145;49.798;-97.162;2022-09-24T06:43:31;0.03;;;0.03;;
67231;SDS011;54145;49.798;-97.162;2022-09-24T06:45:32;0.20;;;0.20;;
67231;SDS011;54145;49.798;-97.162;2022-09-24T06:47:33;0.17;;;0.10;;
67231;SDS011;54145;49.798;-97.162;2022-09-24T06:49:34;0.10;;;0.10;;
67231;SDS011;54145;49.798;-97.162;2022-09-24T06:51:35;0.10;;;0.10;;
67231;SDS011;54145;49.798;-97.162;2022-09-24T06:53:36;0.20;;;0.20;;
67231;SDS011;54145;49.798;-97.162;2022-09-24T06:55:37;0.10;;;0.10;;
67231;SDS011;54145;49.798;-97.162;2022-09-24T06:57:39;0.05;;;0.05;;
67231;SDS011;54145;49.798;-97.162;2022-09-24T06:59:40;0.22;;;0.13;;
67231;SDS011;54145;49.798;-97.162;2022-09-24T07:01:41;0.10;;;0.10;;
67231;SDS011;54145;49.798;-97.162;2022-09-24T07:03:42;0.20;;;0.20;;
67231;SDS011;54145;49.798;-97.162;2022-09-24T07:05:43;0.10;;;0.10;;
67231;SDS011;54145;49.798;-97.162;2022-09-24T07:07:43;0.20;;;0.20;;
67231;SDS011;54145;49.798;-97.162;2022-09-24T07:09:44;0.10;;;0.10;;
67231;SDS011;54145;49.798;-97.162;2022-09-24T07:11:45;0.10;;;0.10;;
67231;SDS011;54145;49.798;-97.162;2022-09-24T07:13:46;0.43;;;0.20;;
67231;SDS011;54145;49.798;-97.162;2022-09-24T07:15:50;0.17;;;0.17;;
67231;SDS011;54145;49.798;-97.162;2022-09-24T07:17:55;0.10;;;0.10;;
67231;SDS011;54145;49.798;-97.162;2022-09-24T07:19:56;0.10;;;0.10;;
67231;SDS011;54145;49.798;-97.162;2022-09-24T07:21:57;0.10;;;0.10;;
67231;SDS011;54145;49.798;-97.162;2022-09-24T07:23:58;0.10;;;0.10;;
67231;SDS011;54145;49.798;-97.162;2022-09-24T07:25:59;0.10;;;0.10;;
67231;SDS011;54145;49.798;-97.162;2022-09-24T07:28:00;0.20;;;0.20;;
67231;SDS011;54145;49.798;-97.162;2022-09-24T07:30:03;0.00;;;0.00;;
67231;SDS011;54145;49.798;-97.162;2022-09-24T07:32:05;0.03;;;0.03;;
67231;SDS011;54145;49.798;-97.162;2022-09-24T07:34:06;0.10;;;0.10;;
67231;SDS011;54145;49.798;-97.162;2022-09-24T07:36:08;0.17;;;0.17;;
67231;SDS011;54145;49.798;-97.162;2022-09-24T07:38:09;0.10;;;0.10;;
67231;SDS011;54145;49.798;-97.162;2022-09-24T07:40:15;0.10;;;0.10;;
67231;SDS011;54145;49.798;-97.162;2022-09-24T07:42:17;0.10;;;0.10;;
67231;SDS011;54145;49.798;-97.162;2022-09-24T07:44:18;0.10;;;0.10;;
67231;SDS011;54145;49.798;-97.162;2022-09-24T07:46:25;0.13;;;0.13;;
67231;SDS011;54145;49.798;-97.162;2022-09-24T07:48:26;0.15;;;0.15;;
67231;SDS011;54145;49.798;-97.162;2022-09-24T07:50:27;0.10;;;0.10;;
67231;SDS011;54145;49.798;-97.162;2022-09-24T07:52:28;0.10;;;0.10;;
67231;SDS011;54145;49.798;-97.162;2022-09-24T07:54:29;0.20;;;0.20;;
67231;SDS011;54145;49.798;-97.162;2022-09-24T07:56:30;0.10;;;0.10;;
67231;SDS011;54145;49.798;-97.162;2022-09-24T07:58:31;0.20;;;0.20;;
67231;SDS011;54145;49.798;-97.162;2022-09-24T08:00:32;0.10;;;0.10;;
67231;SDS011;54145;49.798;-97.162;2022-09-24T08:02:33;0.30;;;0.30;;
67231;SDS011;54145;49.798;-97.162;2022-09-24T08:04:34;0.10;;;0.10;;
67231;SDS011;54145;49.798;-97.162;2022-09-24T08:06:35;0.10;;;0.10;;
67231;SDS011;54145;49.798;-97.162;2022-09-24T08:08:36;0.10;;;0.10;;
67231;SDS011;54145;49.798;-97.162;2022-09-24T08:10:41;0.05;;;0.05;;
67231;SDS011;54145;49.798;-97.162;2022-09-24T08:12:42;0.10;;;0.10;;
67231;SDS011;54145;49.798;-97.162;2022-09-24T08:14:43;0.10;;;0.10;;
67231;SDS011;54145;49.798;-97.162;2022-09-24T08:16:44;0.03;;;0.03;;
67231;SDS011;54145;49.798;-97.162;2022-09-24T08:18:45;0.10;;;0.10;;
67231;SDS011;54145;49.798;-97.162;2022-09-24T08:20:46;0.10;;;0.10;;
67231;SDS011;54145;49.798;-97.162;2022-09-24T08:22:47;0.10;;;0.10;;
67231;SDS011;54145;49.798;-97.162;2022-09-24T08:24:47;0.20;;;0.20;;
67231;SDS011;54145;49.798;-97.162;2022-09-24T08:28:50;0.10;;;0.10;;
67231;SDS011;54145;49.798;-97.162;2022-09-24T08:30:51;0.10;;;0.10;;
67231;SDS011;54145;49.798;-97.162;2022-09-24T08:32:51;0.10;;;0.10;;
67231;SDS011;54145;49.798;-97.162;2022-09-24T08:34:52;0.17;;;0.17;;
67231;SDS011;54145;49.798;-97.162;2022-09-24T08:36:53;0.10;;;0.10;;
67231;SDS011;54145;49.798;-97.162;2022-09-24T08:38:54;0.13;;;0.13;;
67231;SDS011;54145;49.798;-97.162;2022-09-24T08:45:15;0.00;;;0.00;;
67231;SDS011;54145;49.798;-97.162;2022-09-24T08:47:41;0.00;;;0.00;;
67231;SDS011;54145;49.798;-97.162;2022-09-24T08:49:46;0.10;;;0.10;;
67231;SDS011;54145;49.798;-97.162;2022-09-24T08:51:53;0.10;;;0.10;;
67231;SDS011;54145;49.798;-97.162;2022-09-24T08:53:57;0.00;;;0.00;;
67231;SDS011;54145;49.798;-97.162;2022-09-24T08:56:00;0.10;;;0.10;;
67231;SDS011;54145;49.798;-97.162;2022-09-24T08:58:11;0.10;;;0.10;;
67231;SDS011;54145;49.798;-97.162;2022-09-24T09:00:15;0.10;;;0.10;;
67231;SDS011;54145;49.798;-97.162;2022-09-24T09:04:38;0.05;;;0.00;;
67231;SDS011;54145;49.798;-97.162;2022-09-24T09:11:09;0.10;;;0.10;;
67231;SDS011;54145;49.798;-97.162;2022-09-24T09:13:17;0.00;;;0.00;;
67231;SDS011;54145;49.798;-97.162;2022-09-24T09:15:20;0.10;;;0.10;;
67231;SDS011;54145;49.798;-97.162;2022-09-24T09:19:32;0.10;;;0.10;;
67231;SDS011;54145;49.798;-97.162;2022-09-24T09:21:38;0.10;;;0.10;;
67231;SDS011;54145;49.798;-97.162;2022-09-24T09:23:49;0.10;;;0.10;;
67231;SDS011;54145;49.798;-97.162;2022-09-24T09:25:52;0.10;;;0.10;;
67231;SDS011;54145;49.798;-97.162;2022-09-24T09:28:01;0.10;;;0.10;;
67231;SDS011;54145;49.798;-97.162;2022-09-24T09:30:03;0.00;;;0.00;;
67231;SDS011;54145;49.798;-97.162;2022-09-24T09:38:28;0.10;;;0.10;;
67231;SDS011;54145;49.798;-97.162;2022-09-24T09:40:39;0.10;;;0.10;;
67231;SDS011;54145;49.798;-97.162;2022-09-24T09:42:41;0.10;;;0.10;;
67231;SDS011;54145;49.798;-97.162;2022-09-24T09:44:44;0.10;;;0.10;;
67231;SDS011;54145;49.798;-97.162;2022-09-24T09:46:46;0.10;;;0.10;;
67231;SDS011;54145;49.798;-97.162;2022-09-24T09:48:50;0.10;;;0.10;;
67231;SDS011;54145;49.798;-97.162;2022-09-24T09:51:03;0.10;;;0.10;;
67231;SDS011;54145;49.798;-97.162;2022-09-24T09:53:05;0.10;;;0.10;;
67231;SDS011;54145;49.798;-97.162;2022-09-24T09:55:24;0.10;;;0.10;;
67231;SDS011;54145;49.798;-97.162;2022-09-24T09:57:26;0.00;;;0.00;;
67231;SDS011;54145;49.798;-97.162;2022-09-24T09:59:26;0.08;;;0.08;;
67231;SDS011;54145;49.798;-97.162;2022-09-24T10:01:34;0.10;;;0.10;;
67231;SDS011;54145;49.798;-97.162;2022-09-24T10:05:35;0.10;;;0.10;;
67231;SDS011;54145;49.798;-97.162;2022-09-24T10:07:45;0.20;;;0.20;;
67231;SDS011;54145;49.798;-97.162;2022-09-24T10:09:56;0.00;;;0.00;;
67231;SDS011;54145;49.798;-97.162;2022-09-24T10:14:17;0.15;;;0.15;;
67231;SDS011;54145;49.798;-97.162;2022-09-24T10:16:19;0.08;;;0.08;;
67231;SDS011;54145;49.798;-97.162;2022-09-24T10:18:28;0.10;;;0.10;;
67231;SDS011;54145;49.798;-97.162;2022-09-24T10:20:30;0.10;;;0.10;;
67231;SDS011;54145;49.798;-97.162;2022-09-24T10:22:32;0.00;;;0.00;;
67231;SDS011;54145;49.798;-97.162;2022-09-24T10:26:38;0.10;;;0.10;;
67231;SDS011;54145;49.798;-97.162;2022-09-24T10:28:41;0.10;;;0.10;;
67231;SDS011;54145;49.798;-97.162;2022-09-24T10:31:09;0.10;;;0.10;;
67231;SDS011;54145;49.798;-97.162;2022-09-24T10:33:11;0.10;;;0.10;;
67231;SDS011;54145;49.798;-97.162;2022-09-24T10:35:22;0.00;;;0.00;;
67231;SDS011;54145;49.798;-97.162;2022-09-24T10:37:25;0.10;;;0.10;;
67231;SDS011;54145;49.798;-97.162;2022-09-24T10:39:26;0.03;;;0.03;;
67231;SDS011;54145;49.798;-97.162;2022-09-24T10:41:28;0.10;;;0.10;;
67231;SDS011;54145;49.798;-97.162;2022-09-24T10:43:29;0.10;;;0.10;;
67231;SDS011;54145;49.798;-97.162;2022-09-24T10:49:49;0.10;;;0.10;;
67231;SDS011;54145;49.798;-97.162;2022-09-24T10:54:06;0.10;;;0.10;;
67231;SDS011;54145;49.798;-97.162;2022-09-24T10:56:17;0.10;;;0.10;;
67231;SDS011;54145;49.798;-97.162;2022-09-24T11:00:23;0.08;;;0.08;;
67231;SDS011;54145;49.798;-97.162;2022-09-24T11:15:02;0.10;;;0.10;;
67231;SDS011;54145;49.798;-97.162;2022-09-24T11:28:42;0.00;;;0.00;;
67231;SDS011;54145;49.798;-97.162;2022-09-24T11:33:03;0.10;;;0.10;;
67231;SDS011;54145;49.798;-97.162;2022-09-24T11:39:29;0.20;;;0.20;;
67231;SDS011;54145;49.798;-97.162;2022-09-24T11:44:01;0.20;;;0.20;;
67231;SDS011;54145;49.798;-97.162;2022-09-24T11:50:39;0.10;;;0.10;;
67231;SDS011;54145;49.798;-97.162;2022-09-24T12:01:30;0.10;;;0.10;;
67231;SDS011;54145;49.798;-97.162;2022-09-24T12:03:41;0.10;;;0.10;;
67231;SDS011;54145;49.798;-97.162;2022-09-24T12:06:02;0.10;;;0.10;;
67231;SDS011;54145;49.798;-97.162;2022-09-24T12:10:22;0.10;;;0.10;;
67231;SDS011;54145;49.798;-97.162;2022-09-24T12:12:38;0.13;;;0.13;;
67231;SDS011;54145;49.798;-97.162;2022-09-24T12:17:01;0.10;;;0.10;;
67231;SDS011;54145;49.798;-97.162;2022-09-24T12:21:39;0.10;;;0.10;;
67231;SDS011;54145;49.798;-97.162;2022-09-24T12:23:42;0.20;;;0.20;;
67231;SDS011;54145;49.798;-97.162;2022-09-24T12:25:44;0.10;;;0.10;;
67231;SDS011;54145;49.798;-97.162;2022-09-24T12:27:45;0.10;;;0.10;;
67231;SDS011;54145;49.798;-97.162;2022-09-24T12:29:54;0.00;;;0.00;;
67231;SDS011;54145;49.798;-97.162;2022-09-24T12:38:54;0.10;;;0.10;;
67231;SDS011;54145;49.798;-97.162;2022-09-24T12:45:41;0.13;;;0.13;;
67231;SDS011;54145;49.798;-97.162;2022-09-24T12:47:49;0.10;;;0.10;;
67231;SDS011;54145;49.798;-97.162;2022-09-24T12:50:01;0.10;;;0.10;;
67231;SDS011;54145;49.798;-97.162;2022-09-24T12:52:22;0.20;;;0.20;;
67231;SDS011;54145;49.798;-97.162;2022-09-24T12:56:27;0.10;;;0.10;;
67231;SDS011;54145;49.798;-97.162;2022-09-24T12:58:34;0.10;;;0.10;;
67231;SDS011;54145;49.798;-97.162;2022-09-24T13:00:42;0.10;;;0.10;;
67231;SDS011;54145;49.798;-97.162;2022-09-24T13:02:45;0.17;;;0.17;;
67231;SDS011;54145;49.798;-97.162;2022-09-24T13:07:24;0.30;;;0.30;;
67231;SDS011;54145;49.798;-97.162;2022-09-24T13:11:29;0.30;;;0.30;;
67231;SDS011;54145;49.798;-97.162;2022-09-24T13:13:34;0.30;;;0.30;;
67231;SDS011;54145;49.798;-97.162;2022-09-24T13:15:36;0.30;;;0.30;;
67231;SDS011;54145;49.798;-97.162;2022-09-24T13:17:37;0.77;;;0.50;;
67231;SDS011;54145;49.798;-97.162;2022-09-24T13:19:42;0.38;;;0.38;;
67231;SDS011;54145;49.798;-97.162;2022-09-24T13:21:51;0.50;;;0.50;;
67231;SDS011;54145;49.798;-97.162;2022-09-24T13:23:55;0.40;;;0.40;;
67231;SDS011;54145;49.798;-97.162;2022-09-24T13:30:03;0.40;;;0.40;;
67231;SDS011;54145;49.798;-97.162;2022-09-24T13:32:07;0.82;;;0.50;;
67231;SDS011;54145;49.798;-97.162;2022-09-24T13:34:16;0.60;;;0.60;;
67231;SDS011;54145;49.798;-97.162;2022-09-24T13:36:23;0.50;;;0.50;;
67231;SDS011;54145;49.798;-97.162;2022-09-24T13:38:27;0.57;;;0.50;;
67231;SDS011;54145;49.798;-97.162;2022-09-24T13:40:30;0.40;;;0.40;;
67231;SDS011;54145;49.798;-97.162;2022-09-24T13:42:50;0.50;;;0.50;;
67231;SDS011;54145;49.798;-97.162;2022-09-24T13:44:59;0.60;;;0.60;;
67231;SDS011;54145;49.798;-97.162;2022-09-24T13:47:09;0.57;;;0.55;;
67231;SDS011;54145;49.798;-97.162;2022-09-24T13:49:13;0.50;;;0.50;;
67231;SDS011;54145;49.798;-97.162;2022-09-24T13:51:17;0.55;;;0.55;;
67231;SDS011;54145;49.798;-97.162;2022-09-24T13:55:44;0.50;;;0.50;;
67231;SDS011;54145;49.798;-97.162;2022-09-24T13:57:47;0.50;;;0.50;;
67231;SDS011;54145;49.798;-97.162;2022-09-24T13:59:48;0.60;;;0.52;;
67231;SDS011;54145;49.798;-97.162;2022-09-24T14:01:49;1.17;;;0.60;;
67231;SDS011;54145;49.798;-97.162;2022-09-24T14:03:51;3.08;;;0.80;;
67231;SDS011;54145;49.798;-97.162;2022-09-24T14:05:54;0.55;;;0.55;;
67231;SDS011;54145;49.798;-97.162;2022-09-24T14:08:06;2.22;;;0.40;;
67231;SDS011;54145;49.798;-97.162;2022-09-24T14:10:12;1.65;;;0.80;;
67231;SDS011;54145;49.798;-97.162;2022-09-24T14:12:14;1.05;;;0.70;;
67231;SDS011;54145;49.798;-97.162;2022-09-24T14:14:16;1.02;;;0.70;;
67231;SDS011;54145;49.798;-97.162;2022-09-24T14:16:19;0.98;;;0.80;;